Time;durP1;ratioP1;P1;durP2;ratioP2;P2;SDS_P1;SDS_P2;PMS_P1;PMS_P2;Temp;Humidity;BMP_temperature;BMP_pressure;BME280_temperature;BME280_humidity;BME280_pressure;Samples;Min_cycle;Max_cycle;Signal;HPM_P1;HPM_P2
2023/03/12 00:01:38;;;;;;;0.40;0.40;;;0.50;99.90;;;;;;5032260;28;20690;-83
2023/03/12 00:04:04;;;;;;;1.27;0.93;;;0.30;99.90;;;;;;5044373;28;20320;-82
2023/03/12 00:06:30;;;;;;;1.83;1.73;;;0.20;99.90;;;;;;5033374;28;20281;-82
2023/03/12 00:08:57;;;;;;;0.97;0.97;;;0.10;99.90;;;;;;5033964;28;20218;-84
2023/03/12 00:11:23;;;;;;;0.50;0.50;;;0.10;99.90;;;;;;5026198;28;20299;-86
2023/03/12 00:13:56;;;;;;;1.53;1.43;;;0.00;99.90;;;;;;5006114;28;20707;-84
2023/03/12 00:16:22;;;;;;;1.07;1.07;;;0.10;99.90;;;;;;5032807;28;20230;-84
2023/03/12 00:18:50;;;;;;;0.60;0.60;;;0.10;99.90;;;;;;5042906;28;20186;-83
2023/03/12 00:21:16;;;;;;;0.43;0.43;;;0.10;99.90;;;;;;5044163;28;20190;-83
2023/03/12 00:23:42;;;;;;;0.97;0.97;;;0.10;99.90;;;;;;5025128;28;20206;-82
2023/03/12 00:26:12;;;;;;;0.50;0.50;;;0.10;99.90;;;;;;5041793;28;20556;-83
2023/03/12 00:28:38;;;;;;;1.13;1.13;;;0.10;99.90;;;;;;5039213;28;20257;-82
2023/03/12 00:31:16;;;;;;;0.73;0.73;;;0.20;99.90;;;;;;5042606;28;20755;-83
2023/03/12 00:33:42;;;;;;;0.57;0.57;;;0.10;99.90;;;;;;5033815;28;20194;-83
2023/03/12 00:36:10;;;;;;;0.93;0.93;;;0.20;99.90;;;;;;5016563;28;20194;-85
2023/03/12 00:38:35;;;;;;;0.60;0.60;;;0.30;99.90;;;;;;5043021;28;20229;-82
2023/03/12 00:41:01;;;;;;;0.60;0.60;;;0.40;99.90;;;;;;5040511;28;20229;-85
2023/03/12 00:43:27;;;;;;;2.03;1.93;;;0.40;99.90;;;;;;5018254;28;20226;-82
2023/03/12 00:45:52;;;;;;;1.90;0.93;;;0.40;99.90;;;;;;5042660;28;20194;-82
2023/03/12 00:48:18;;;;;;;1.17;1.07;;;0.20;99.90;;;;;;5035237;28;21216;-82
2023/03/12 00:50:44;;;;;;;1.43;1.43;;;0.20;99.90;;;;;;5042996;28;20257;-82
2023/03/12 00:53:09;;;;;;;1.50;1.40;;;0.20;99.90;;;;;;5022362;28;20216;-83
2023/03/12 00:55:35;;;;;;;14.87;1.00;;;0.20;99.90;;;;;;5050434;28;20299;-84
2023/03/12 00:58:01;;;;;;;1.70;1.60;;;0.20;99.90;;;;;;5048584;28;21222;-82
2023/03/12 01:00:27;;;;;;;20.03;1.07;;;0.20;99.90;;;;;;5016925;28;20198;-85
2023/03/12 01:02:53;;;;;;;0.87;0.87;;;0.10;99.90;;;;;;5033149;28;20705;-83
2023/03/12 01:05:19;;;;;;;0.67;0.67;;;0.00;99.90;;;;;;5047289;28;21052;-82
2023/03/12 01:07:45;;;;;;;1.30;0.80;;;0.00;99.90;;;;;;5054378;28;20240;-83
2023/03/12 01:10:13;;;;;;;1.07;1.00;;;0.00;99.90;;;;;;5052549;28;20228;-83
2023/03/12 01:12:40;;;;;;;0.33;0.33;;;-0.10;99.90;;;;;;5068646;28;20188;-82
2023/03/12 01:15:06;;;;;;;0.60;0.60;;;-0.10;99.90;;;;;;5064053;28;20233;-86
2023/03/12 01:17:32;;;;;;;0.43;0.43;;;-0.20;99.90;;;;;;5063121;28;20229;-82
2023/03/12 01:19:57;;;;;;;1.67;1.60;;;-0.20;99.90;;;;;;5032823;28;20239;-83
2023/03/12 01:22:23;;;;;;;1.43;1.33;;;-0.20;99.90;;;;;;5073953;28;20220;-83
2023/03/12 01:24:49;;;;;;;0.43;0.43;;;-0.20;99.90;;;;;;5039853;28;20638;-84
2023/03/12 01:27:14;;;;;;;1.00;0.93;;;-0.20;99.90;;;;;;5040123;28;20181;-83
2023/03/12 01:29:40;;;;;;;0.50;0.50;;;-0.10;99.90;;;;;;5055763;28;20241;-82
2023/03/12 01:32:06;;;;;;;0.70;0.57;;;0.00;99.90;;;;;;5030555;28;20249;-82
2023/03/12 01:34:34;;;;;;;1.07;1.00;;;0.10;99.90;;;;;;5075393;28;20279;-82
2023/03/12 01:37:00;;;;;;;0.57;0.57;;;0.20;99.90;;;;;;5038266;28;20209;-83
2023/03/12 01:39:26;;;;;;;0.50;0.50;;;0.30;99.90;;;;;;5054988;28;20276;-86
2023/03/12 01:41:52;;;;;;;0.47;0.47;;;0.30;99.90;;;;;;5072323;28;20221;-83
2023/03/12 01:44:17;;;;;;;0.77;0.77;;;0.30;99.90;;;;;;5054797;28;20209;-84
2023/03/12 01:46:44;;;;;;;0.60;0.60;;;0.40;99.90;;;;;;5054440;28;20308;-84
2023/03/12 01:49:33;;;;;;;0.30;0.30;;;0.50;99.90;;;;;;5038117;28;20221;-81
2023/03/12 01:52:03;;;;;;;0.60;0.60;;;0.60;99.90;;;;;;5072066;28;20209;-83
2023/03/12 01:54:37;;;;;;;2.47;1.23;;;0.70;99.90;;;;;;5054992;28;20237;-84
2023/03/12 01:57:07;;;;;;;1.17;1.17;;;0.80;99.90;;;;;;5072668;28;20635;-85
2023/03/12 01:59:57;;;;;;;0.50;0.50;;;0.80;99.90;;;;;;5071918;28;20221;-82
2023/03/12 02:02:27;;;;;;;0.60;0.60;;;0.80;99.90;;;;;;5054474;28;20696;-86
2023/03/12 02:05:10;;;;;;;0.50;0.50;;;0.90;99.90;;;;;;5070618;28;20751;-84
2023/03/12 02:07:36;;;;;;;1.80;1.60;;;0.90;99.90;;;;;;5053828;28;20229;-82
2023/03/12 02:10:03;;;;;;;0.50;0.50;;;0.90;99.90;;;;;;5036992;28;20247;-85
2023/03/12 02:12:29;;;;;;;1.13;1.10;;;1.00;99.90;;;;;;5054079;28;20627;-82
2023/03/12 02:14:54;;;;;;;0.90;0.90;;;1.00;99.90;;;;;;5071161;28;20328;-82
2023/03/12 02:17:20;;;;;;;0.60;0.60;;;1.10;99.90;;;;;;5071557;28;20224;-83
2023/03/12 02:20:15;;;;;;;1.10;1.10;;;1.10;99.90;;;;;;5053937;28;20221;-85
2023/03/12 02:22:47;;;;;;;0.47;0.47;;;1.00;99.90;;;;;;5053349;28;20217;-83
2023/03/12 02:25:47;;;;;;;0.40;0.40;;;1.10;99.90;;;;;;5071207;28;20799;-86
2023/03/12 02:28:15;;;;;;;1.27;0.77;;;1.10;99.90;;;;;;5066954;28;20279;-88
2023/03/12 02:30:43;;;;;;;0.53;0.53;;;1.10;99.90;;;;;;5053217;28;20180;-87
2023/03/12 02:33:09;;;;;;;0.63;0.63;;;1.10;99.90;;;;;;5070915;28;20634;-80
2023/03/12 02:35:36;;;;;;;0.50;0.50;;;1.20;99.90;;;;;;5071056;28;20622;-82
2023/03/12 02:38:22;;;;;;;1.53;1.30;;;1.20;99.90;;;;;;5071096;28;20572;-84
2023/03/12 02:40:49;;;;;;;0.50;0.50;;;1.20;99.90;;;;;;5070848;28;20682;-81
2023/03/12 02:43:17;;;;;;;0.57;0.57;;;1.20;99.90;;;;;;5071256;28;20274;-83
2023/03/12 02:45:43;;;;;;;1.00;1.00;;;1.20;99.90;;;;;;5053253;28;20201;-84
2023/03/12 02:48:08;;;;;;;0.90;0.90;;;1.20;99.90;;;;;;5037647;28;20473;-86
2023/03/12 02:50:34;;;;;;;1.60;1.33;;;1.20;99.90;;;;;;5053734;28;20282;-82
2023/03/12 02:53:00;;;;;;;3.40;0.83;;;1.20;99.90;;;;;;5036642;28;20212;-81
2023/03/12 02:55:26;;;;;;;14.43;2.77;;;1.30;99.90;;;;;;5053287;28;20646;-82
2023/03/12 02:57:51;;;;;;;9.00;1.43;;;1.30;99.90;;;;;;5052868;28;20180;-83
2023/03/12 03:00:17;;;;;;;1.10;1.10;;;1.30;99.90;;;;;;5071242;28;20192;-86
2023/03/12 03:02:43;;;;;;;1.40;1.30;;;1.40;99.90;;;;;;5070856;28;20220;-83
2023/03/12 03:05:10;;;;;;;0.50;0.50;;;1.40;99.90;;;;;;5036405;28;20351;-82
2023/03/12 03:07:36;;;;;;;0.80;0.80;;;1.40;99.90;;;;;;5053126;28;20244;-83
2023/03/12 03:10:04;;;;;;;1.37;1.37;;;1.40;99.90;;;;;;5035802;28;20853;-82
2023/03/12 03:12:30;;;;;;;1.50;1.07;;;1.40;99.90;;;;;;5053376;28;20174;-83
2023/03/12 03:14:56;;;;;;;0.97;0.97;;;1.40;99.90;;;;;;5052445;28;20244;-85
2023/03/12 03:17:23;;;;;;;0.70;0.70;;;1.40;99.90;;;;;;5052238;28;20225;-82
2023/03/12 03:19:52;;;;;;;0.50;0.50;;;1.50;99.90;;;;;;5070063;28;20225;-82
2023/03/12 03:22:20;;;;;;;0.97;0.97;;;1.50;99.90;;;;;;5053062;28;20209;-83
2023/03/12 03:24:46;;;;;;;0.40;0.40;;;1.50;99.90;;;;;;5070440;28;20634;-83
2023/03/12 03:27:13;;;;;;;0.77;0.77;;;1.50;99.90;;;;;;5036545;28;20626;-82
2023/03/12 03:29:38;;;;;;;0.50;0.50;;;1.50;99.90;;;;;;5052186;28;20316;-83
2023/03/12 03:32:05;;;;;;;0.50;0.50;;;1.50;99.90;;;;;;5069498;28;20296;-83
2023/03/12 03:34:31;;;;;;;1.40;1.03;;;1.50;99.90;;;;;;5052505;28;20304;-82
2023/03/12 03:36:57;;;;;;;0.50;0.50;;;1.50;99.90;;;;;;5070063;28;20239;-82
2023/03/12 03:39:24;;;;;;;0.40;0.40;;;1.50;99.90;;;;;;5036545;28;20619;-84
2023/03/12 03:41:51;;;;;;;0.40;0.40;;;1.50;99.90;;;;;;5052037;28;20293;-82
2023/03/12 03:44:17;;;;;;;1.13;1.13;;;1.50;99.90;;;;;;5051755;28;20228;-83
2023/03/12 03:46:43;;;;;;;0.83;0.83;;;1.50;99.90;;;;;;5052299;28;20583;-83
2023/03/12 03:49:09;;;;;;;0.50;0.50;;;1.50;99.90;;;;;;5035566;28;20233;-85
2023/03/12 03:51:35;;;;;;;0.30;0.30;;;1.50;99.90;;;;;;5053056;28;20269;-86
2023/03/12 03:54:01;;;;;;;1.23;1.23;;;1.60;99.90;;;;;;5052300;28;20210;-83
2023/03/12 03:56:26;;;;;;;25.63;0.93;;;1.60;99.90;;;;;;5052271;28;20296;-84
2023/03/12 03:58:52;;;;;;;0.83;0.83;;;1.60;99.90;;;;;;5052634;28;20708;-83
2023/03/12 04:01:18;;;;;;;0.50;0.50;;;1.60;99.90;;;;;;5052144;28;20205;-83
2023/03/12 04:03:44;;;;;;;1.10;1.00;;;1.70;99.90;;;;;;5052063;28;20814;-89
2023/03/12 04:06:10;;;;;;;0.60;0.60;;;1.70;99.90;;;;;;5052600;28;20554;-83
2023/03/12 04:08:37;;;;;;;0.40;0.40;;;1.70;99.90;;;;;;5069588;28;20754;-83
2023/03/12 04:11:07;;;;;;;0.80;0.80;;;1.70;99.90;;;;;;5069652;28;20217;-85
2023/03/12 04:13:34;;;;;;;0.97;0.97;;;1.70;99.90;;;;;;5051603;28;20241;-85
2023/03/12 04:15:59;;;;;;;0.87;0.87;;;1.70;99.90;;;;;;5051956;28;20220;-85
2023/03/12 04:18:25;;;;;;;0.70;0.70;;;1.70;99.90;;;;;;5052338;28;20181;-85
2023/03/12 04:20:51;;;;;;;0.40;0.40;;;1.70;99.90;;;;;;5069697;28;20224;-84
2023/03/12 04:23:16;;;;;;;4.07;1.07;;;1.70;99.90;;;;;;5051859;28;20225;-83
2023/03/12 04:25:42;;;;;;;0.93;0.83;;;1.70;99.90;;;;;;5051659;28;20221;-86
2023/03/12 04:28:08;;;;;;;1.07;1.07;;;1.70;99.90;;;;;;5051501;28;20342;-83
2023/03/12 04:30:37;;;;;;;0.70;0.70;;;1.70;99.90;;;;;;5068729;28;20181;-82
2023/03/12 04:33:03;;;;;;;0.73;0.67;;;1.60;99.90;;;;;;5032351;28;20238;-85
2023/03/12 04:35:29;;;;;;;0.40;0.40;;;1.60;99.90;;;;;;5049444;28;20225;-85
2023/03/12 04:37:55;;;;;;;0.60;0.60;;;1.50;99.90;;;;;;5031253;28;20245;-85
2023/03/12 04:40:21;;;;;;;0.60;0.60;;;1.50;99.90;;;;;;5049107;28;20212;-82
2023/03/12 04:42:47;;;;;;;0.97;0.87;;;1.60;99.90;;;;;;5049552;28;20257;-81
2023/03/12 04:45:13;;;;;;;1.03;1.03;;;1.50;99.90;;;;;;5015750;28;20255;-81
2023/03/12 04:47:39;;;;;;;1.00;1.00;;;1.50;99.90;;;;;;5049477;28;20231;-84
2023/03/12 04:50:08;;;;;;;0.50;0.50;;;1.50;99.90;;;;;;5015017;28;20553;-83
2023/03/12 04:52:34;;;;;;;0.47;0.47;;;1.50;99.90;;;;;;5015820;28;20214;-84
2023/03/12 04:55:01;;;;;;;1.67;1.10;;;1.60;99.90;;;;;;5031413;28;20684;-83
2023/03/12 04:57:26;;;;;;;0.50;0.50;;;1.50;99.90;;;;;;5051808;28;20691;-82
2023/03/12 04:59:52;;;;;;;3.63;0.73;;;1.50;99.90;;;;;;5019086;28;20313;-86
2023/03/12 05:02:18;;;;;;;0.40;0.40;;;1.50;99.90;;;;;;5035597;28;20245;-82
2023/03/12 05:04:43;;;;;;;0.53;0.53;;;1.50;99.90;;;;;;5018758;28;20613;-83
2023/03/12 05:07:09;;;;;;;1.00;1.00;;;1.50;99.90;;;;;;5035211;28;20593;-82
2023/03/12 05:09:35;;;;;;;0.60;0.60;;;1.50;99.90;;;;;;5019303;28;20210;-82
2023/03/12 05:12:01;;;;;;;0.37;0.37;;;1.50;99.90;;;;;;5035319;28;20206;-83
2023/03/12 05:14:27;;;;;;;0.93;0.70;;;1.60;99.90;;;;;;5018813;28;20234;-84
2023/03/12 05:16:52;;;;;;;1.13;1.13;;;1.60;99.90;;;;;;5051923;28;20230;-85
2023/03/12 05:19:18;;;;;;;0.60;0.53;;;1.60;99.90;;;;;;5053000;28;20225;-86
2023/03/12 05:21:44;;;;;;;0.63;0.63;;;1.60;99.90;;;;;;5035208;28;20189;-82
2023/03/12 05:24:11;;;;;;;0.50;0.50;;;1.60;99.90;;;;;;5035778;28;20205;-82
2023/03/12 05:26:37;;;;;;;0.73;0.73;;;1.60;99.90;;;;;;5052895;28;20221;-85
2023/03/12 05:29:04;;;;;;;1.07;1.07;;;1.60;99.90;;;;;;5034410;28;20305;-82
2023/03/12 05:31:33;;;;;;;1.03;1.03;;;1.70;99.90;;;;;;5066842;28;20228;-82
2023/03/12 05:33:59;;;;;;;1.50;1.40;;;1.70;99.90;;;;;;5033705;28;20210;-83
2023/03/12 05:36:25;;;;;;;0.50;0.50;;;1.70;99.90;;;;;;5052323;28;20182;-84
2023/03/12 05:38:51;;;;;;;0.90;0.90;;;1.80;99.90;;;;;;5033827;28;20218;-84
2023/03/12 05:41:20;;;;;;;0.47;0.43;;;1.80;99.90;;;;;;5033178;28;20217;-88
2023/03/12 05:43:46;;;;;;;0.57;0.57;;;1.80;99.90;;;;;;5051035;28;20222;-88
2023/03/12 05:46:13;;;;;;;1.27;1.03;;;1.80;99.90;;;;;;5051091;28;20220;-82
2023/03/12 05:48:38;;;;;;;0.67;0.67;;;1.80;99.90;;;;;;5050821;28;20655;-82
2023/03/12 05:51:04;;;;;;;0.77;0.77;;;1.80;99.90;;;;;;5034324;28;20197;-86
2023/03/12 05:53:30;;;;;;;0.43;0.43;;;1.90;99.90;;;;;;5033682;28;20209;-87
2023/03/12 05:56:05;;;;;;;0.87;0.87;;;1.90;99.90;;;;;;5017216;28;20224;-82
2023/03/12 05:58:32;;;;;;;0.50;0.50;;;1.90;99.90;;;;;;5034335;28;20279;-82
2023/03/12 06:00:58;;;;;;;0.67;0.67;;;1.90;99.90;;;;;;5034212;28;20291;-85
2023/03/12 06:03:23;;;;;;;0.50;0.50;;;1.90;99.90;;;;;;5035051;28;20205;-83
2023/03/12 06:05:49;;;;;;;2.00;1.90;;;1.90;99.90;;;;;;5051804;28;20671;-82
2023/03/12 06:08:15;;;;;;;0.90;0.90;;;1.90;99.90;;;;;;5050822;28;20301;-88
2023/03/12 06:10:41;;;;;;;1.93;1.83;;;1.90;99.90;;;;;;5051050;28;20222;-82
2023/03/12 06:13:07;;;;;;;0.40;0.40;;;1.90;99.90;;;;;;5032586;28;20217;-83
2023/03/12 06:15:33;;;;;;;1.73;1.50;;;1.90;99.90;;;;;;5017043;28;20261;-86
2023/03/12 06:17:59;;;;;;;1.70;1.60;;;1.90;99.90;;;;;;5033075;28;20363;-84
2023/03/12 06:20:24;;;;;;;1.23;1.23;;;1.90;99.90;;;;;;5016078;28;20686;-86
2023/03/12 06:22:50;;;;;;;1.53;0.87;;;1.90;99.90;;;;;;5032891;28;20221;-82
2023/03/12 06:25:16;;;;;;;0.83;0.83;;;1.90;99.90;;;;;;5032561;28;20209;-88
2023/03/12 06:27:42;;;;;;;0.73;0.73;;;1.90;99.90;;;;;;5016143;28;20178;-85
2023/03/12 06:30:08;;;;;;;1.33;0.93;;;1.90;99.90;;;;;;5016539;28;20202;-85
2023/03/12 06:32:34;;;;;;;0.60;0.60;;;1.90;99.90;;;;;;5051373;28;20216;-87
2023/03/12 06:35:03;;;;;;;2.63;0.97;;;1.90;99.90;;;;;;5033006;28;20222;-86
2023/03/12 06:37:29;;;;;;;1.63;1.53;;;1.90;99.90;;;;;;5050687;28;20217;-81
2023/03/12 06:39:55;;;;;;;0.63;0.63;;;1.90;99.90;;;;;;5050330;28;20259;-86
2023/03/12 06:42:21;;;;;;;0.93;0.93;;;1.90;99.90;;;;;;5017485;28;20623;-86
2023/03/12 06:44:48;;;;;;;0.70;0.70;;;2.00;99.90;;;;;;5033549;28;20706;-83
2023/03/12 06:47:13;;;;;;;1.20;1.20;;;2.00;99.90;;;;;;5033255;28;20214;-82
2023/03/12 06:49:39;;;;;;;0.67;0.67;;;2.00;99.90;;;;;;5033691;28;20236;-83
2023/03/12 06:52:05;;;;;;;1.47;1.47;;;2.00;99.90;;;;;;5051101;28;20267;-83
2023/03/12 06:54:31;;;;;;;1.33;1.33;;;1.90;99.90;;;;;;5034410;28;20247;-85
2023/03/12 06:56:58;;;;;;;0.70;0.70;;;1.90;99.90;;;;;;5051269;28;20216;-83
2023/03/12 06:59:25;;;;;;;1.17;1.17;;;1.80;99.90;;;;;;5017190;28;20241;-90
2023/03/12 07:01:51;;;;;;;0.53;0.53;;;1.70;99.90;;;;;;5050369;28;20214;-86
2023/03/12 07:04:16;;;;;;;0.90;0.90;;;1.70;99.90;;;;;;5033490;28;20263;-84
2023/03/12 07:06:42;;;;;;;1.13;1.13;;;1.60;99.90;;;;;;5033498;28;20174;-84
2023/03/12 07:09:08;;;;;;;0.90;0.87;;;1.50;99.90;;;;;;5017306;28;20206;-82
2023/03/12 07:11:34;;;;;;;0.83;0.83;;;1.50;99.90;;;;;;5016837;28;20667;-86
2023/03/12 07:14:00;;;;;;;0.67;0.67;;;1.40;99.90;;;;;;5032971;28;20268;-84
2023/03/12 07:16:26;;;;;;;0.50;0.50;;;1.40;99.90;;;;;;5050898;28;20301;-84
2023/03/12 07:18:52;;;;;;;0.50;0.50;;;1.40;99.90;;;;;;5049961;28;20619;-83
2023/03/12 07:21:24;;;;;;;1.17;1.17;;;1.40;99.90;;;;;;5033558;28;20183;-86
2023/03/12 07:23:50;;;;;;;0.57;0.57;;;1.30;99.90;;;;;;5017620;28;20222;-83
2023/03/12 07:26:17;;;;;;;21.03;1.23;;;1.30;99.90;;;;;;5033188;28;20214;-83
2023/03/12 07:28:42;;;;;;;1.53;1.43;;;1.30;99.90;;;;;;5050058;28;20226;-85
2023/03/12 07:31:08;;;;;;;0.60;0.60;;;1.30;99.90;;;;;;5016100;28;20344;-85
2023/03/12 07:33:34;;;;;;;0.60;0.60;;;1.30;99.90;;;;;;5032969;28;20228;-81
2023/03/12 07:36:00;;;;;;;0.97;0.70;;;1.20;99.90;;;;;;5032810;28;20214;-82
2023/03/12 07:38:26;;;;;;;0.93;0.93;;;1.20;99.90;;;;;;5016313;28;20244;-82
2023/03/12 07:40:53;;;;;;;0.90;0.90;;;1.20;99.90;;;;;;5050077;28;20231;-81
2023/03/12 07:43:19;;;;;;;0.77;0.77;;;1.20;99.90;;;;;;5049675;28;20217;-81
2023/03/12 07:45:45;;;;;;;0.63;0.63;;;1.20;99.90;;;;;;5032159;28;20204;-82
2023/03/12 07:48:11;;;;;;;0.87;0.87;;;1.20;99.90;;;;;;5032424;28;20189;-83
2023/03/12 07:50:37;;;;;;;0.30;0.30;;;1.30;99.90;;;;;;5032350;28;20241;-85
2023/03/12 07:53:03;;;;;;;0.93;0.93;;;1.30;99.90;;;;;;5032289;28;20320;-83
2023/03/12 07:55:30;;;;;;;0.50;0.50;;;1.20;99.90;;;;;;5049629;28;20351;-82
2023/03/12 07:57:57;;;;;;;0.67;0.67;;;1.30;99.90;;;;;;5032259;28;22916;-81
2023/03/12 08:00:28;;;;;;;0.40;0.40;;;1.30;99.90;;;;;;5015929;28;20182;-82
2023/03/12 08:02:53;;;;;;;0.50;0.50;;;1.30;99.90;;;;;;5049929;28;20615;-85
2023/03/12 08:05:23;;;;;;;1.03;1.03;;;1.30;99.90;;;;;;5049293;28;20241;-84
2023/03/12 08:07:52;;;;;;;0.77;0.77;;;1.30;99.90;;;;;;5048831;28;20216;-83
2023/03/12 08:10:19;;;;;;;0.50;0.50;;;1.30;99.90;;;;;;5032303;28;20714;-82
2023/03/12 08:12:45;;;;;;;0.40;0.40;;;1.30;99.90;;;;;;5048193;28;20265;-86
2023/03/12 08:15:12;;;;;;;0.30;0.30;;;1.30;99.90;;;;;;5032675;28;20345;-82
2023/03/12 08:17:38;;;;;;;0.47;0.47;;;1.40;99.90;;;;;;5049384;28;20539;-82
2023/03/12 08:20:08;;;;;;;1.50;1.47;;;1.40;99.90;;;;;;5032108;28;20228;-83
2023/03/12 08:22:34;;;;;;;0.60;0.60;;;1.40;99.90;;;;;;5049496;28;20313;-83
2023/03/12 08:25:00;;;;;;;0.77;0.77;;;1.40;99.90;;;;;;5032462;28;20255;-86
2023/03/12 08:27:26;;;;;;;0.80;0.80;;;1.40;99.90;;;;;;5029177;28;20198;-86
2023/03/12 08:29:54;;;;;;;0.30;0.30;;;1.40;99.90;;;;;;5018250;28;20363;-82
2023/03/12 08:32:20;;;;;;;0.90;0.80;;;1.50;99.90;;;;;;5049267;28;20420;-82
2023/03/12 08:34:46;;;;;;;0.50;0.50;;;1.40;99.90;;;;;;5049722;28;20663;-81
2023/03/12 08:37:12;;;;;;;0.50;0.50;;;1.50;99.90;;;;;;5031248;28;20222;-82
2023/03/12 08:39:37;;;;;;;0.60;0.60;;;1.60;99.90;;;;;;5031871;28;20213;-81
2023/03/12 08:42:04;;;;;;;0.70;0.70;;;1.60;99.90;;;;;;5031620;28;20180;-85
2023/03/12 08:44:30;;;;;;;0.67;0.67;;;1.60;99.90;;;;;;5031746;28;20222;-86
2023/03/12 08:46:56;;;;;;;0.93;0.93;;;1.60;99.90;;;;;;5031405;28;20698;-83
2023/03/12 08:49:22;;;;;;;0.63;0.63;;;1.60;99.90;;;;;;5029510;28;20874;-82
2023/03/12 08:51:50;;;;;;;7.23;1.57;;;1.60;99.90;;;;;;5048022;28;20189;-84
2023/03/12 08:54:16;;;;;;;0.87;0.60;;;1.60;99.90;;;;;;5048581;28;20193;-84
2023/03/12 08:56:42;;;;;;;0.33;0.33;;;1.70;99.90;;;;;;5030801;28;20225;-83
2023/03/12 09:06:15;;;;;;;0.77;0.77;;;1.70;99.90;;;;;;5005812;28;20222;-84
2023/03/12 09:08:42;;;;;;;0.60;0.60;;;1.80;99.90;;;;;;5005533;28;20227;-83
2023/03/12 09:11:09;;;;;;;1.93;1.20;;;1.80;99.90;;;;;;4990416;28;20223;-82
2023/03/12 09:13:35;;;;;;;0.70;0.70;;;1.80;99.90;;;;;;5006165;28;20239;-84
2023/03/12 09:16:02;;;;;;;0.53;0.53;;;1.90;99.90;;;;;;4990544;28;20288;-84
2023/03/12 09:18:29;;;;;;;2.00;1.00;;;1.90;99.90;;;;;;4989272;28;20457;-85
2023/03/12 09:20:56;;;;;;;0.60;0.60;;;1.90;99.90;;;;;;4989861;28;20228;-83
2023/03/12 09:23:22;;;;;;;1.47;1.37;;;2.00;99.90;;;;;;5006002;28;20239;-86
2023/03/12 09:25:48;;;;;;;1.97;1.53;;;2.00;99.90;;;;;;5006289;28;20215;-84
2023/03/12 09:28:14;;;;;;;0.80;0.80;;;2.00;99.90;;;;;;5005511;28;20211;-84
2023/03/12 09:30:41;;;;;;;2.07;1.27;;;2.10;99.90;;;;;;5006194;28;20742;-84
2023/03/12 09:33:06;;;;;;;1.33;1.23;;;2.10;99.90;;;;;;5036904;28;20247;-85
2023/03/12 09:35:32;;;;;;;0.63;0.63;;;2.20;99.90;;;;;;5031319;28;20289;-84
2023/03/12 09:37:58;;;;;;;1.87;1.77;;;2.20;99.90;;;;;;5013933;28;20222;-85
2023/03/12 09:40:28;;;;;;;1.00;0.97;;;2.30;99.90;;;;;;5047880;28;20668;-84
2023/03/12 09:42:59;;;;;;;2.10;2.00;;;2.30;99.90;;;;;;5049566;28;20252;-84
2023/03/12 09:45:31;;;;;;;1.10;1.10;;;2.40;99.90;;;;;;5052828;28;20424;-84
2023/03/12 09:48:12;;;;;;;1.10;1.10;;;2.40;99.90;;;;;;5052320;28;20210;-84
2023/03/12 09:50:42;;;;;;;2.63;1.63;;;2.50;99.90;;;;;;5034500;28;20230;-85
2023/03/12 09:53:29;;;;;;;1.47;1.37;;;2.50;99.90;;;;;;5034132;28;20220;-85
2023/03/12 09:55:57;;;;;;;0.67;0.67;;;2.60;99.90;;;;;;5034650;28;20221;-84
2023/03/12 09:58:32;;;;;;;0.60;0.60;;;2.60;99.90;;;;;;5051066;28;20599;-86
2023/03/12 10:01:31;;;;;;;3.03;2.67;;;2.70;99.90;;;;;;5033696;28;20573;-82
2023/03/12 10:04:15;;;;;;;1.60;1.50;;;2.80;99.90;;;;;;5045166;28;20222;-83
2023/03/12 10:07:17;;;;;;;2.03;2.00;;;2.90;99.90;;;;;;5050867;28;20638;-83
2023/03/12 10:10:01;;;;;;;1.57;1.47;;;3.00;99.90;;;;;;5032935;28;20301;-84
2023/03/12 10:13:06;;;;;;;1.63;1.53;;;3.00;99.90;;;;;;5067581;28;20724;-86
2023/03/12 10:15:48;;;;;;;1.07;1.07;;;3.10;99.90;;;;;;5001576;28;20244;-84
2023/03/12 10:18:35;;;;;;;0.63;0.63;;;3.30;99.90;;;;;;5033063;28;20265;-84
2023/03/12 10:21:28;;;;;;;1.13;1.13;;;3.30;99.90;;;;;;5051493;28;20259;-83
2023/03/12 10:24:07;;;;;;;1.27;1.27;;;3.40;99.90;;;;;;5051289;28;20240;-84
2023/03/12 10:26:39;;;;;;;1.60;1.50;;;3.40;99.90;;;;;;5051097;28;20310;-83
2023/03/12 10:29:16;;;;;;;1.67;1.57;;;3.50;99.90;;;;;;5048470;28;20238;-84
2023/03/12 10:32:09;;;;;;;0.90;0.90;;;3.50;99.90;;;;;;5066234;27;20823;-83
2023/03/12 10:34:51;;;;;;;1.83;1.73;;;3.70;99.90;;;;;;5050672;28;20216;-82
2023/03/12 10:37:20;;;;;;;4.00;1.60;;;3.90;99.90;;;;;;5056815;28;20224;-84
2023/03/12 10:39:46;;;;;;;1.33;1.00;;;3.90;99.90;;;;;;5054229;28;20639;-82
2023/03/12 10:42:18;;;;;;;3.03;1.93;;;3.90;99.90;;;;;;5050430;28;20208;-82
2023/03/12 10:44:51;;;;;;;2.47;1.47;;;4.00;99.90;;;;;;5049437;28;20221;-84
2023/03/12 10:47:32;;;;;;;1.60;1.53;;;4.00;99.90;;;;;;5048760;28;20221;-83
2023/03/12 10:50:12;;;;;;;2.27;1.73;;;4.10;99.90;;;;;;5046578;28;20248;-84
2023/03/12 10:52:38;;;;;;;3.40;2.47;;;4.30;99.90;;;;;;5050046;28;20228;-84
2023/03/12 10:55:28;;;;;;;5.27;4.77;;;4.40;99.90;;;;;;5051470;28;20240;-83
2023/03/12 10:57:55;;;;;;;3.87;3.33;;;4.50;99.90;;;;;;5052137;28;20597;-83
2023/03/12 11:00:31;;;;;;;10.37;7.53;;;4.60;99.90;;;;;;5047430;28;20544;-83
2023/03/12 11:02:59;;;;;;;12.80;8.13;;;4.80;99.90;;;;;;5040609;28;20683;-82
2023/03/12 11:05:29;;;;;;;6.93;3.43;;;4.90;99.90;;;;;;5049609;28;20313;-84
2023/03/12 11:07:55;;;;;;;2.37;2.17;;;5.10;99.90;;;;;;5050420;28;20221;-84
2023/03/12 11:10:45;;;;;;;2.47;1.60;;;5.30;99.90;;;;;;5030899;28;20229;-83
2023/03/12 11:13:33;;;;;;;1.87;1.77;;;5.50;99.90;;;;;;5043624;28;20249;-83
2023/03/12 11:16:19;;;;;;;3.27;2.93;;;5.50;99.90;;;;;;5049478;28;20266;-84
2023/03/12 11:19:05;;;;;;;1.87;1.67;;;5.60;99.90;;;;;;5046809;28;20197;-84
2023/03/12 11:21:39;;;;;;;1.40;1.30;;;5.60;99.90;;;;;;5036606;28;20270;-83
2023/03/12 11:24:13;;;;;;;8.23;3.20;;;5.70;99.90;;;;;;5051160;28;20263;-82
2023/03/12 11:27:26;;;;;;;1.67;1.57;;;5.90;99.90;;;;;;5048745;28;20674;-82
2023/03/12 11:29:53;;;;;;;2.13;1.90;;;5.90;99.90;;;;;;5050210;28;20721;-85
2023/03/12 11:32:36;;;;;;;1.13;1.03;;;6.00;99.90;;;;;;5048723;28;20238;-85
2023/03/12 11:35:03;;;;;;;4.10;3.50;;;6.00;99.90;;;;;;5050088;28;20233;-84
2023/03/12 11:37:35;;;;;;;4.27;3.53;;;6.20;99.90;;;;;;5052524;28;20605;-84
2023/03/12 11:40:15;;;;;;;8.87;2.57;;;6.30;99.90;;;;;;5048022;28;20221;-83
2023/03/12 11:43:08;;;;;;;3.97;3.57;;;6.30;99.90;;;;;;5039297;28;20280;-85
2023/03/12 11:45:40;;;;;;;7.87;3.30;;;6.40;99.90;;;;;;5037914;28;20256;-85
2023/03/12 11:48:12;;;;;;;6.20;3.83;;;6.50;99.90;;;;;;5039442;28;20240;-85
2023/03/12 11:51:06;;;;;;;3.33;3.10;;;6.60;99.90;;;;;;5034747;28;20248;-85
2023/03/12 11:53:48;;;;;;;10.03;3.27;;;6.80;99.90;;;;;;5036893;28;20310;-85
2023/03/12 11:56:26;;;;;;;15.93;8.13;;;6.90;99.90;;;;;;5038432;28;20216;-85
2023/03/12 11:59:29;;;;;;;2.97;2.73;;;7.00;99.90;;;;;;5037360;28;20266;-84
2023/03/12 12:02:10;;;;;;;2.17;1.50;;;7.20;99.90;;;;;;5037153;28;20222;-87
2023/03/12 12:05:13;;;;;;;1.00;1.00;;;7.60;99.90;;;;;;5037238;28;20217;-85
2023/03/12 12:08:14;;;;;;;2.07;1.87;;;7.80;99.90;;;;;;5035988;28;20560;-84
2023/03/12 12:11:04;;;;;;;1.50;1.50;;;7.90;99.90;;;;;;5045366;28;20291;-85
2023/03/12 12:14:02;;;;;;;1.63;0.67;;;7.90;99.90;;;;;;5037089;28;20207;-85
2023/03/12 12:17:06;;;;;;;1.10;1.10;;;8.00;99.90;;;;;;5059873;28;20580;-84
2023/03/12 12:19:37;;;;;;;1.33;1.20;;;8.20;99.90;;;;;;5037547;28;20216;-88
2023/03/12 12:22:29;;;;;;;1.37;1.17;;;8.20;99.90;;;;;;5034534;28;20224;-86
2023/03/12 12:25:13;;;;;;;2.20;0.97;;;8.30;99.90;;;;;;5036764;28;20190;-88
2023/03/12 12:27:56;;;;;;;0.77;0.77;;;8.40;99.90;;;;;;5037290;28;20277;-86
2023/03/12 12:30:42;;;;;;;9.97;1.67;;;8.60;99.90;;;;;;5038689;28;20242;-86
2023/03/12 12:33:22;;;;;;;4.00;2.13;;;8.80;99.90;;;;;;5037258;28;20229;-84
2023/03/12 12:35:48;;;;;;;3.20;2.00;;;9.00;99.90;;;;;;5039168;28;20747;-85
2023/03/12 12:38:29;;;;;;;2.10;1.77;;;8.90;99.90;;;;;;5037663;28;20280;-87
2023/03/12 12:41:18;;;;;;;2.43;2.03;;;9.00;99.90;;;;;;5037894;28;20690;-86
2023/03/12 12:43:54;;;;;;;6.17;2.47;;;9.10;99.90;;;;;;5037377;28;20206;-90
2023/03/12 12:46:34;;;;;;;1.77;1.67;;;9.10;99.90;;;;;;5032600;28;20225;-89
2023/03/12 12:49:09;;;;;;;1.10;1.00;;;9.20;99.90;;;;;;5043898;28;20230;-90
2023/03/12 12:51:40;;;;;;;1.20;1.03;;;9.30;99.90;;;;;;5053576;28;20222;-86
2023/03/12 12:54:15;;;;;;;2.03;1.90;;;9.50;99.90;;;;;;5035782;28;20217;-85
2023/03/12 12:57:10;;;;;;;0.50;0.50;;;9.80;99.90;;;;;;5036780;28;20984;-83
2023/03/12 12:59:43;;;;;;;2.03;1.83;;;9.80;99.90;;;;;;5035376;28;20679;-84
2023/03/12 13:02:32;;;;;;;3.07;1.30;;;9.90;99.90;;;;;;5061446;28;20214;-86
2023/03/12 13:05:00;;;;;;;4.97;1.90;;;10.00;99.90;;;;;;5033913;28;20700;-86
2023/03/12 13:07:25;;;;;;;5.27;1.73;;;10.10;99.90;;;;;;5035596;28;20297;-84
2023/03/12 13:09:57;;;;;;;3.20;1.43;;;10.10;99.90;;;;;;5037995;28;20817;-85
2023/03/12 13:12:49;;;;;;;1.83;1.73;;;10.20;99.90;;;;;;5036933;28;20186;-83
2023/03/12 13:15:38;;;;;;;3.40;1.30;;;10.20;99.90;;;;;;5034048;28;20248;-85
2023/03/12 13:18:07;;;;;;;1.20;1.17;;;10.20;99.90;;;;;;5034942;28;20752;-85
2023/03/12 13:20:58;;;;;;;6.33;0.80;;;10.20;99.90;;;;;;5032458;28;20227;-86